This is the latest recevied weather packets stored in our database for station/object N1ICS-1. If no packets are shown the sender has not sent any weather packets the latest 10 day(s).
| Time | Temp. | Humidity | Pressure | Rain* | Wind** | Luminosity | Snow |
|---|---|---|---|---|---|---|---|
| 1777581602 | 13.33° C | 50% | 1016.4 hPa | 0 mm | - | 808 W/m² | - |
| 1777581302 | 12.78° C | 52% | 1016.2 hPa | 0 mm | - | 767 W/m² | - |
| 1777581002 | 13.33° C | 49% | 1016.4 hPa | 0 mm | - | 739 W/m² | - |
| 1777580702 | 13.89° C | 51% | 1016.6 hPa | 0 mm | - | 771 W/m² | - |
| 1777580402 | 13.33° C | 47% | 1016.5 hPa | 0 mm | - | 165 W/m² | - |
| 1777580102 | 13.33° C | 48% | 1016.5 hPa | 0 mm | - | 768 W/m² | - |
| 1777579802 | 13.89° C | 52% | 1016.5 hPa | 0 mm | - | 795 W/m² | - |
| 1777579501 | 13.89° C | 46% | 1016.8 hPa | 0 mm | - | 814 W/m² | - |
| 1777579202 | 13.89° C | 47% | 1016.7 hPa | 0 mm | - | 871 W/m² | - |
| 1777578902 | 13.33° C | 48% | 1016.8 hPa | 0 mm | - | 904 W/m² | - |
| 1777578602 | 13.33° C | 51% | 1016.8 hPa | 0 mm | - | 872 W/m² | - |
| 1777578301 | 13.33° C | 48% | 1016.9 hPa | 0 mm | - | 873 W/m² | - |
| 1777578002 | 13.33° C | 51% | 1016.9 hPa | 0 mm | - | 898 W/m² | - |
| 1777577702 | 13.89° C | 51% | 1016.8 hPa | 0 mm | - | 932 W/m² | - |
| 1777577401 | 13.33° C | 50% | 1017 hPa | 0 mm | - | 886 W/m² | - |
| 1777577102 | 13.89° C | 49% | 1016.9 hPa | 0 mm | - | 1042 W/m² | - |
| 1777576802 | 13.89° C | 53% | 1016.8 hPa | 0 mm | - | 1017 W/m² | - |
| 1777576501 | 13.33° C | 53% | 1017 hPa | 0 mm | - | 1117 W/m² | - |
| 1777576202 | 12.78° C | 50% | 1017 hPa | 0 mm | - | 1062 W/m² | - |
| 1777575902 | 12.78° C | 51% | 1017.2 hPa | 0 mm | - | 366 W/m² | - |
| 1777575603 | 13.89° C | 53% | 1017 hPa | 0 mm | - | 1110 W/m² | - |
| 1777575302 | 13.33° C | 49% | 1017 hPa | 0 mm | - | 1090 W/m² | - |
| 1777575002 | 12.78° C | 50% | 1016.9 hPa | 0 mm | - | 562 W/m² | - |
| 1777574702 | 13.33° C | 51% | 1017 hPa | 0 mm | - | 1020 W/m² | - |
| 1777574402 | 12.22° C | 51% | 1017.3 hPa | 0 mm | - | 301 W/m² | - |
* Rain latest hour (hover to see other rain measurements)
** Current wind speed in m/s (hover to see current wind gust speed)